• Join FlightAware (Why Join?)
  • Login
  • US Flag 
12:19AM EST


 

Airport Tracker/Info


-or-


 

Live Flight TrackerFlight Track Log ✈ LOF3416 ✈ 11-Sep-2013 ✈ KORD - KSGF

Flight Track Log - Related Links

Times and Time Zones

All times are in EDT time to prevent confusion due to time zone crossing. See the LOF3416 flight status page for this flight to view local times or setup timezone preferences in your user account.

Time Position Orientation Groundspeed Altitude Reporting Facility
EDT Latitude Longitude Course Direction KTS MPH feet Rate Location/Type
11:37PM 42.0000 -87.9333 334° Northwest 162 186 1,500  Level Chicago TRACON
11:38PM 42.0500 -87.9667 334° Northwest 213 245 3,400 1,680 Climbing Chicago TRACON
11:39PM 42.0333 -87.8833 105° East 284 327 4,900 780 Climbing Chicago TRACON
11:40PM 41.9667 -87.8500 160° South 290 334 5,000 60 Climbing Chicago TRACON
11:41PM 41.8833 -87.8333 172° South 283 326 5,100 1,200 Climbing Chicago TRACON
11:42PM 41.8208 -87.8983 218° Southwest 269 310 7,500 2,100 Climbing Chicago Center
11:43PM 41.7578 -87.9447 209° Southwest 261 300 9,600 1,860 Climbing Chicago Center
11:44PM 41.6872 -87.9911 206° Southwest 276 318 11,400 1,440 Climbing Chicago Center
11:45PM 41.6133 -88.0439 208° Southwest 299 344 12,600 1,320 Climbing Chicago Center
11:46PM 41.5575 -88.1303 229° Southwest 311 358 14,200 1,380 Climbing Chicago Center
11:47PM 41.5003 -88.2178 229° Southwest 319 367 15,500 1,200 Climbing Chicago Center
11:48PM 41.4414 -88.3089 229° Southwest 330 380 16,700 1,320 Climbing Chicago Center
11:49PM 41.3692 -88.4203 229° Southwest 336 387 18,200 1,500 Climbing Chicago Center
11:50PM 41.3089 -88.5106 228° Southwest 332 382 19,800 1,560 Climbing Chicago Center
11:51PM 41.2500 -88.6019 229° Southwest 330 380 21,400 1,560 Climbing Chicago Center
11:52PM 41.1867 -88.6847 225° Southwest 323 372 23,000 1,560 Climbing Chicago Center
11:53PM 41.1247 -88.7650 224° Southwest 315 362 24,600 1,560 Climbing Chicago Center
11:54PM 41.0642 -88.8442 225° Southwest 309 356 26,200 1,440 Climbing Chicago Center
11:55PM 41.0042 -88.9175 223° Southwest 302 348 27,600 840 Climbing Chicago Center
11:56PM 40.9444 -88.9994 226° Southwest 306 352 28,000 180 Climbing Chicago Center
11:57PM 40.8739 -89.0886 224° Southwest 328 377 28,000  Level Chicago Center
11:58PM 40.7964 -89.1861 224° Southwest 367 422 28,000  Level Chicago Center
11:59PM 40.7150 -89.2883 224° Southwest 393 452 28,000  Level Chicago Center
12:00AM 40.6294 -89.3956 224° Southwest 413 475 28,000  Level Chicago Center
12:01AM 40.5422 -89.5044 224° Southwest 424 488 28,000  Level Chicago Center
12:02AM 40.4539 -89.6161 224° Southwest 432 497 28,000  Level Chicago Center
12:03AM 40.3664 -89.7278 224° Southwest 434 499 28,000  Level Chicago Center
12:04AM 40.2775 -89.8389 224° Southwest 436 502 28,000  Level Chicago Center
12:05AM 40.1883 -89.9519 224° Southwest 439 505 28,000  Level Kansas City Center
12:06AM 40.0981 -90.0614 223° Southwest 441 507 28,000  Level Kansas City Center
12:07AM 40.0086 -90.1722 224° Southwest 442 509 28,000  Level Kansas City Center
12:08AM 39.9186 -90.2833 223° Southwest 444 511 28,000  Level Kansas City Center
12:09AM 39.8289 -90.3922 223° Southwest 442 509 28,000  Level Kansas City Center
12:10AM 39.7317 -90.5114 223° Southwest 443 510 28,000  Level Kansas City Center
12:11AM 39.6417 -90.6206 223° Southwest 444 511 28,000  Level Kansas City Center
12:12AM 39.5519 -90.7286 223° Southwest 443 510 28,000  Level Kansas City Center
12:13AM 39.4622 -90.8367 223° Southwest 444 511 28,000  Level Kansas City Center
12:14AM 39.3542 -90.9664 223° Southwest 444 511 28,000  Level Kansas City Center
12:15AM 39.2636 -91.0744 223° Southwest 446 513 28,000  Level Kansas City Center
12:16AM 39.1750 -91.1806 223° Southwest 441 507 28,000  Level Kansas City Center
12:17AM 39.0861 -91.2883 223° Southwest 442 509 28,000  Level Kansas City Center
12:18AM 38.9953 -91.3950 222° Southwest 444 511 28,000  Level Kansas City Center
12:19AM 38.9047 -91.5022 223° Southwest 445 512 28,000  Level Kansas City Center
12:20AM 38.8142 -91.6083 222° Southwest 445 512 28,000  Level Kansas City Center
12:21AM 38.7133 -91.7283 223° Southwest 445 512 28,000  Level Kansas City Center
12:22AM 38.6206 -91.8347 222° Southwest 445 512 28,000  Level Kansas City Center
12:23AM 38.5281 -91.9408 222° Southwest 447 514 28,000  Level Kansas City Center
12:24AM 38.4358 -92.0489 223° Southwest 449 517 28,000  Level Kansas City Center
12:25AM 38.3422 -92.1550 222° Southwest 450 518 28,000 -960 Level Kansas City Center
12:26AM 38.2503 -92.2597 222° Southwest 446 513 26,100 -2,160 Descending Kansas City Center
12:28AM 38.1542 -92.3703 222° Southwest 440 506 23,700 -2,340 Descending Kansas City Center
12:29AM 38.0647 -92.4736 222° Southwest 437 503 21,400 -2,340 Descending Kansas City Center
12:30AM 37.9775 -92.5722 222° Southwest 426 490 19,100 -2,160 Descending Kansas City Center
12:31AM 37.8936 -92.6658 221° Southwest 409 471 17,100 -1,560 Descending Kansas City Center
12:32AM 37.8081 -92.7619 222° Southwest 387 445 16,000 -600 Descending Kansas City Center
12:33AM 37.7322 -92.8517 223° Southwest 377 434 16,000 -1,140 Level Kansas City Center
12:34AM 37.6642 -92.9531 230° Southwest 379 436 13,700 -2,340 Descending Kansas City Center
12:35AM 37.5997 -93.0467 229° Southwest 366 421 11,400 -1,860 Descending Kansas City Center
12:36AM 37.5422 -93.1322 230° Southwest 334 384 10,000 -1,440 Descending Kansas City Center
12:37AM 37.4936 -93.2039 229° Southwest 280 322 8,500 -1,680 Descending Kansas City Center
12:38AM 37.4447 -93.2747 229° Southwest 270 311 6,700 -1,740 Descending Kansas City Center
12:39AM 37.3986 -93.3456 231° Southwest 264 304 5,000 -1,380 Descending Kansas City Center
12:40AM 37.3542 -93.4075 228° Southwest 252 290 4,000 -1,020 Descending Kansas City Center
12:41AM 37.3197 -93.4525 226° Southwest 213 245 3,000 -960 Descending Kansas City Center
12:42AM 37.2883 -93.4314 152° Southeast 163 188 2,100 -840 Descending Kansas City Center
12:43AM 37.2586 -93.4036 143° Southeast 141 162 1,400 -720 Descending Kansas City Center
12:45AM 37.2457 -93.3886 219° Southwest  Level Estimated
12:52AM 37.2457 -93.3886 219° Southwest  Level Estimated